• Join FlightAware (Why Join?)
  • Login
  • US Flag 
12:12AM EST


 

Airport Tracker/Info


-or-


 

Live Flight TrackerFlight Track Log ✈ ASH2734 ✈ 07-May-2012 ✈ KPHX - MMMZ / MZT

Flight Track Log - Related Links

Times and Time Zones

All times are in EDT time to prevent confusion due to time zone crossing. See the ASH2734 flight status page for this flight to view local times or setup timezone preferences in your user account.

Time Position Orientation Groundspeed Altitude Reporting Facility
EDT Latitude Longitude Course Direction KTS MPH feet Rate Location/Type
12:40PM 33.4333 -111.9833 168° South 164 189 1,900  Level Phoenix TRACON
12:45PM 33.1692 -111.9147 143° Southeast 326 375 12,700 2,040 Climbing Albuquerque Center
12:46PM 33.0886 -111.8411 141° Southeast 326 375 14,600 1,860 Climbing Albuquerque Center
12:47PM 33.0081 -111.7625 142° Southeast 345 397 16,500 1,740 Climbing Albuquerque Center
12:48PM 32.9233 -111.6842 142° Southeast 372 428 18,500 1,920 Climbing Albuquerque Center
12:49PM 32.8203 -111.5875 142° Southeast 384 442 20,800 1,800 Climbing Albuquerque Center
12:50PM 32.7497 -111.5222 160° South 395 455 22,100 1,620 Climbing Albuquerque Center
12:51PM 32.6244 -111.4669 160° South 395 455 24,100 1,500 Climbing Albuquerque Center
12:52PM 32.5319 -111.4281 160° South 395 455 25,200 1,200 Climbing Albuquerque Center
12:53PM 32.4269 -111.3836 162° South 400 460 26,600 1,260 Climbing Albuquerque Center
12:54PM 32.3178 -111.3417 161° South 400 460 27,800 1,140 Climbing Albuquerque Center
12:55PM 32.2067 -111.2975 161° South 405 466 28,900 900 Climbing Albuquerque Center
12:56PM 32.0956 -111.2531 162° South 417 480 29,700 780 Climbing Albuquerque Center
12:57PM 31.9803 -111.2089 160° South 427 491 30,500 840 Climbing Albuquerque Center
12:58PM 31.8528 -111.1544 161° South 432 497 31,400 840 Climbing Albuquerque Center
12:59PM 31.7353 -111.1078 161° South 438 504 32,200 720 Climbing Albuquerque Center
01:00PM 31.6158 -111.0589 162° South 444 511 33,000 840 Climbing Albuquerque Center
01:01PM 31.4736 -111.0044 161° South 449 517 34,100 960 Climbing Albuquerque Center
01:02PM 31.3583 -110.9583 169° South 444 511 35,000 900 Climbing Albuquerque Center
01:10PM 30.4520 -110.7624 153° Southeast  Level FlightAware Approximate
01:11PM 30.3436 -110.6979 153° Southeast  Level FlightAware Approximate
01:12PM 30.2352 -110.6334 153° Southeast  Level FlightAware Approximate
01:13PM 30.1267 -110.5691 153° Southeast  Level FlightAware Approximate
01:14PM 30.0182 -110.5050 153° Southeast  Level FlightAware Approximate
01:15PM 29.9097 -110.4410 153° Southeast  Level FlightAware Approximate
01:16PM 29.8011 -110.3771 153° Southeast  Level FlightAware Approximate
01:17PM 29.6926 -110.3134 153° Southeast  Level FlightAware Approximate
01:18PM 29.5839 -110.2498 153° Southeast  Level FlightAware Approximate
01:19PM 29.4753 -110.1863 152° Southeast  Level FlightAware Approximate
01:20PM 29.3680 -110.1198 152° Southeast  Level FlightAware Approximate
01:21PM 29.2608 -110.0535 152° Southeast  Level FlightAware Approximate
01:22PM 29.1535 -109.9873 152° Southeast  Level FlightAware Approximate
01:23PM 29.0461 -109.9212 152° Southeast  Level FlightAware Approximate
01:24PM 28.9387 -109.8553 152° Southeast  Level FlightAware Approximate
01:25PM 28.8313 -109.7895 152° Southeast  Level FlightAware Approximate
01:26PM 28.7239 -109.7238 152° Southeast  Level FlightAware Approximate
01:27PM 28.6164 -109.6583 152° Southeast  Level FlightAware Approximate
01:28PM 28.5089 -109.5929 152° Southeast  Level FlightAware Approximate
01:29PM 28.4014 -109.5276 152° Southeast  Level FlightAware Approximate
01:30PM 28.2938 -109.4625 152° Southeast  Level FlightAware Approximate
01:31PM 28.1862 -109.3975 152° Southeast  Level FlightAware Approximate
01:32PM 28.0786 -109.3327 150° Southeast  Level FlightAware Approximate
01:33PM 27.9729 -109.2641 150° Southeast  Level FlightAware Approximate
01:34PM 27.8671 -109.1956 150° Southeast  Level FlightAware Approximate
01:35PM 27.7612 -109.1273 150° Southeast  Level FlightAware Approximate
01:36PM 27.6553 -109.0591 150° Southeast  Level FlightAware Approximate
01:37PM 27.5494 -108.9910 150° Southeast  Level FlightAware Approximate
01:38PM 27.4435 -108.9231 150° Southeast  Level FlightAware Approximate
01:39PM 27.3375 -108.8552 150° Southeast  Level FlightAware Approximate
01:40PM 27.2315 -108.7876 150° Southeast  Level FlightAware Approximate
01:41PM 27.1255 -108.7200 150° Southeast  Level FlightAware Approximate
01:42PM 27.0194 -108.6526 151° Southeast  Level FlightAware Approximate
01:43PM 26.9133 -108.5853 151° Southeast  Level FlightAware Approximate
01:44PM 26.8072 -108.5182 151° Southeast  Level FlightAware Approximate
01:45PM 26.7010 -108.4511 151° Southeast  Level FlightAware Approximate
01:46PM 26.5948 -108.3842 151° Southeast  Level FlightAware Approximate
01:47PM 26.4886 -108.3174 151° Southeast  Level FlightAware Approximate
01:48PM 26.3823 -108.2507 151° Southeast  Level FlightAware Approximate
01:49PM 26.2760 -108.1842 151° Southeast  Level FlightAware Approximate
01:50PM 26.1697 -108.1178 150° Southeast  Level FlightAware Approximate
01:51PM 26.0636 -108.0509 151° Southeast  Level FlightAware Approximate
01:52PM 25.9575 -107.9842 151° Southeast  Level FlightAware Approximate
01:53PM 25.8514 -107.9176 151° Southeast  Level FlightAware Approximate
01:54PM 25.7452 -107.8511 151° Southeast  Level FlightAware Approximate
01:55PM 25.6390 -107.7848 151° Southeast  Level FlightAware Approximate
01:56PM 25.5328 -107.7185 151° Southeast  Level FlightAware Approximate
01:57PM 25.4265 -107.6524 151° Southeast  Level FlightAware Approximate
01:58PM 25.3202 -107.5864 151° Southeast  Level FlightAware Approximate
01:59PM 25.2139 -107.5205 151° Southeast  Level FlightAware Approximate
02:00PM 25.1076 -107.4548 151° Southeast  Level FlightAware Approximate
02:01PM 25.0012 -107.3891 151° Southeast  Level FlightAware Approximate
02:02PM 24.8948 -107.3235 151° Southeast  Level FlightAware Approximate
02:03PM 24.7883 -107.2581 197° South  Level FlightAware Approximate
02:04PM 24.6741 -107.2954 152° Southeast  Level FlightAware Approximate
02:05PM 24.5671 -107.2319 148° Southeast  Level FlightAware Approximate
02:06PM 24.4638 -107.1607 148° Southeast  Level FlightAware Approximate
02:07PM 24.3603 -107.0901 147° Southeast  Level FlightAware Approximate
02:08PM 24.2502 -107.0126 146° Southeast  Level FlightAware Approximate
02:09PM 24.1413 -106.9331 148° Southeast  Level FlightAware Approximate
02:10PM 24.0300 -106.8576 148° Southeast  Level FlightAware Approximate
02:11PM 23.9187 -106.7823 149° Southeast  Level FlightAware Approximate
02:12PM 23.8060 -106.7095 148° Southeast  Level FlightAware Approximate
02:13PM 23.6948 -106.6341 147° Southeast  Level FlightAware Approximate
02:14PM 23.5847 -106.5570 146° Southeast  Level FlightAware Approximate
02:15PM 23.4756 -106.4782 150° Southeast  Level FlightAware Approximate
02:16PM 23.3627 -106.4064 148° Southeast  Level FlightAware Approximate
02:17PM 23.2519 -106.3311 145° Southeast  Level FlightAware Approximate
02:18PM 23.1500 -106.2525 312° West  Level FlightAware Approximate
02:19PM 23.2381 -106.3578 132° Southeast  Level Estimated
02:20PM 23.1500 -106.2500 308° West  Level FlightAware Approximate
02:21PM 23.2297 -106.3629 127° Southeast  Level Estimated
02:22PM 23.1500 -106.2500 127° Southeast  Level FlightAware Approximate